Accueil
METAR-TAF:

METAR-TAF

Aéroports :

Guilin, Chine

Aéroport international de Guilin Liangjiang

latitude: 25-20N, longitude: 110-18E, altitude: 166 m

Observation

Le bulletin a été fait il y a 41 minutes, à 00:00 UTC
Vent 4 kt de direction variable
Température 27°C
Humidité 89%
Pression 1006 hPa
Visibilité 10 km ou plus
pas de nuages en-dessous de 1500 mètres et pas de cumulonimbus.

METAR: ZGKL 270000Z VRB02MPS CAVOK 27/25 Q1006 NOSIG

Heure: 08:41 (00:41 UTC)

Prévision

Le bulletin a été fait il y a 5 heures et 24 minutes, à 19:17 UTC
Prévision valable du 27 à 00 UTC au 27 à 24 UTC
Vent 6 kt de sud
Visibilité 10 km ou plus
pas de nuages en-dessous de 1500 mètres et pas de cumulonimbus.
Temporairement
du 27 à 06 UTC au 27 à 12 UTC
Quelques nuages à une hauteur de 4000 ft, Cumulonimbus.

TAF: ZGKL 261917Z 2700/2724 17003MPS CAVOK TX36/2707Z TN25/2722Z TEMPO 2706/2712 FEW040CB

Observations et prévisions météorologiques de plus de 4000 aéroports (messages METAR et TAF).

Les stations disponibles sont représentées par des disques jaunes et rouges sur la carte.

Passer la souris dessus pour voir le nom de la station.

Cliquer dessus pour voir les observations et prévisions météorologiques.

Pour changer de carte: cliquez sur les boutons verts avec une croix noire pour zoomer, sur le bouton vert avec un tiret pour effectuer un zoom arrière, ou sur les flèches vertes pour les cartes adjacentes.


METAR-TAF: